createdAt,value
2019-04-29T00:01:23.193Z,3.73
2019-04-29T00:04:31.952Z,5.80
2019-04-29T00:07:40.699Z,6.93
2019-04-29T00:10:49.653Z,6.33
2019-04-29T00:13:58.573Z,4.60
2019-04-29T00:17:14.100Z,5.77
2019-04-29T00:20:29.435Z,6.63
2019-04-29T00:23:37.965Z,6.37
2019-04-29T00:26:46.554Z,3.63
2019-04-29T00:29:55.200Z,5.90
2019-04-29T00:33:03.978Z,4.33
2019-04-29T00:36:12.679Z,5.43
2019-04-29T00:39:39.480Z,6.20
2019-04-29T00:43:03.872Z,5.70
2019-04-29T00:46:12.999Z,4.90
2019-04-29T00:49:22.708Z,6.23
2019-04-29T00:52:41.583Z,6.53
2019-04-29T00:55:52.082Z,4.83
2019-04-29T00:59:00.605Z,4.40
2019-04-29T01:02:10.051Z,5.80
2019-04-29T01:05:29.158Z,7.43
2019-04-29T01:08:37.904Z,6.67
2019-04-29T01:11:46.528Z,5.23
2019-04-29T01:14:55.146Z,5.50
2019-04-29T01:18:03.865Z,6.60
2019-04-29T01:21:12.530Z,4.93
2019-04-29T01:24:21.052Z,4.70
2019-04-29T01:27:34.782Z,4.03
2019-04-29T01:31:02.341Z,4.90
2019-04-29T01:34:28.630Z,5.67
2019-04-29T01:37:42.571Z,5.20
2019-04-29T01:41:08.108Z,5.53
2019-04-29T01:44:17.345Z,4.53
2019-04-29T01:47:38.531Z,5.42
2019-04-29T01:50:48.975Z,4.97
2019-04-29T01:53:57.584Z,5.30
2019-04-29T01:57:07.259Z,6.63
2019-04-29T02:00:16.553Z,8.23
2019-04-29T02:03:25.084Z,9.40
2019-04-29T02:06:34.022Z,8.73
2019-04-29T02:09:57.043Z,6.90
2019-04-29T02:13:06.380Z,8.80
2019-04-29T02:16:16.252Z,10.43
2019-04-29T02:19:26.317Z,10.97
2019-04-29T02:23:02.894Z,11.47
2019-04-29T02:26:11.501Z,11.37
2019-04-29T02:29:20.126Z,10.80
2019-04-29T02:32:28.778Z,11.33
2019-04-29T02:35:37.523Z,15.13
2019-04-29T02:38:53.574Z,12.47
2019-04-29T02:42:45.445Z,16.57
2019-04-29T02:45:55.227Z,16.03
2019-04-29T02:49:14.171Z,13.10
2019-04-29T02:52:22.803Z,13.50
2019-04-29T02:55:35.977Z,13.90
2019-04-29T02:58:50.682Z,12.90
2019-04-29T03:02:31.153Z,14.60
2019-04-29T03:05:44.121Z,16.63
2019-04-29T03:08:52.712Z,14.13
2019-04-29T03:12:11.803Z,13.37
2019-04-29T03:15:34.644Z,13.77
2019-04-29T03:18:47.931Z,13.03
2019-04-29T03:21:57.341Z,15.30
2019-04-29T03:25:06.853Z,14.50
2019-04-29T03:28:25.634Z,13.33
2019-04-29T03:31:39.106Z,12.67
2019-04-29T03:34:44.648Z,11.37
2019-04-29T03:37:53.348Z,12.90
2019-04-29T03:41:01.919Z,11.97
2019-04-29T03:44:10.551Z,10.70
2019-04-29T03:47:19.350Z,11.63
2019-04-29T03:50:28.242Z,14.10
2019-04-29T03:53:36.803Z,11.17
2019-04-29T03:56:46.087Z,12.63
2019-04-29T03:59:57.075Z,12.77
2019-04-29T04:03:11.978Z,13.00
2019-04-29T04:06:26.038Z,17.23
2019-04-29T04:09:52.888Z,12.87
2019-04-29T04:13:01.650Z,14.30
2019-04-29T04:16:13.323Z,15.90
2019-04-29T04:19:22.829Z,13.10
2019-04-29T04:22:48.157Z,15.67
2019-04-29T04:25:56.806Z,15.23
2019-04-29T04:29:05.407Z,14.97
2019-04-29T04:32:14.018Z,13.30
2019-04-29T04:35:22.651Z,15.00
2019-04-29T04:38:31.295Z,17.13
2019-04-29T04:41:39.968Z,17.80
2019-04-29T04:44:58.798Z,17.33
2019-04-29T04:48:07.567Z,14.53
2019-04-29T04:51:16.427Z,19.83
2019-04-29T04:54:25.034Z,15.97
2019-04-29T04:57:33.695Z,15.10
2019-04-29T05:00:44.124Z,17.47
2019-04-29T05:03:52.787Z,15.87
2019-04-29T05:07:01.571Z,18.00
2019-04-29T05:10:10.269Z,16.70
2019-04-29T05:13:27.989Z,17.07
2019-04-29T05:16:29.871Z,15.53
2019-04-29T05:19:38.436Z,16.93
2019-04-29T05:23:02.404Z,17.37
2019-04-29T05:26:21.656Z,17.80
2019-04-29T05:29:30.271Z,18.17
2019-04-29T05:32:41.669Z,17.70
2019-04-29T05:36:09.101Z,17.13
2019-04-29T05:39:42.436Z,17.17
2019-04-29T05:43:05.128Z,22.03
2019-04-29T05:46:32.347Z,20.20
2019-04-29T05:49:58.711Z,21.87
2019-04-29T05:53:20.559Z,17.40
2019-04-29T05:56:29.177Z,19.10
2019-04-29T05:59:37.877Z,19.70
2019-04-29T06:02:46.495Z,21.57
2019-04-29T06:05:55.128Z,18.00
2019-04-29T06:09:11.777Z,16.50
2019-04-29T06:12:19.203Z,18.47
2019-04-29T06:15:27.831Z,21.77
2019-04-29T06:18:36.379Z,19.43
2019-04-29T06:21:55.219Z,20.23
2019-04-29T06:25:02.376Z,20.37
2019-04-29T06:28:11.053Z,22.27
2019-04-29T06:31:19.911Z,22.40
2019-04-29T06:34:28.637Z,21.93
2019-04-29T06:37:37.295Z,22.80
2019-04-29T06:40:45.955Z,20.97
2019-04-29T06:43:56.155Z,23.37
2019-04-29T06:47:04.895Z,24.40
2019-04-29T06:50:13.697Z,20.93
2019-04-29T06:53:23.478Z,25.07
2019-04-29T06:56:42.546Z,25.23
2019-04-29T06:59:51.123Z,24.50
2019-04-29T07:02:59.639Z,24.70
2019-04-29T07:06:08.421Z,23.30
2019-04-29T07:09:17.053Z,24.00
2019-04-29T07:12:27.488Z,23.63
2019-04-29T07:15:36.061Z,23.03
2019-04-29T07:18:49.360Z,24.97
2019-04-29T07:21:56.579Z,24.67
2019-04-29T07:25:17.345Z,18.63
2019-04-29T07:28:38.406Z,23.20
2019-04-29T07:31:47.147Z,23.37
2019-04-29T07:34:55.735Z,21.03
2019-04-29T07:38:08.211Z,20.07
2019-04-29T07:41:18.964Z,22.50
2019-04-29T07:44:42.788Z,19.07
2019-04-29T07:47:40.402Z,18.67
2019-04-29T07:50:49.098Z,20.13
2019-04-29T07:53:57.849Z,18.30
2019-04-29T07:57:06.533Z,18.13
2019-04-29T08:00:15.843Z,17.53
2019-04-29T08:03:24.512Z,17.73
2019-04-29T08:06:38.027Z,16.87
2019-04-29T08:09:45.378Z,16.53
2019-04-29T08:12:55.011Z,17.00
2019-04-29T08:16:03.661Z,14.53
2019-04-29T08:19:12.316Z,14.17
2019-04-29T08:22:22.981Z,14.20
2019-04-29T08:25:31.461Z,14.47
2019-04-29T08:28:52.897Z,12.30
2019-04-29T08:32:02.495Z,13.10
2019-04-29T08:35:21.679Z,12.53
2019-04-29T08:38:30.435Z,13.33
2019-04-29T08:41:39.082Z,12.30
2019-04-29T08:45:15.473Z,11.80
2019-04-29T08:48:24.128Z,13.10
2019-04-29T08:51:32.673Z,12.13
2019-04-29T08:54:41.268Z,11.97
2019-04-29T08:57:49.876Z,12.37
2019-04-29T09:00:58.643Z,10.53
2019-04-29T09:04:07.315Z,12.17
2019-04-29T09:07:17.465Z,11.43
2019-04-29T09:10:26.452Z,10.97
2019-04-29T09:13:35.047Z,10.83
2019-04-29T09:16:53.911Z,12.30
2019-04-29T09:20:02.542Z,11.97
2019-04-29T09:23:13.440Z,12.00
2019-04-29T09:26:44.782Z,12.10
2019-04-29T09:30:13.263Z,11.45
2019-04-29T09:33:23.413Z,11.63
2019-04-29T09:36:48.413Z,11.70
2019-04-29T09:39:57.472Z,11.47
2019-04-29T09:43:45.793Z,10.63
2019-04-29T09:46:54.403Z,10.13
2019-04-29T09:50:03.015Z,10.50
2019-04-29T09:53:11.861Z,10.53
2019-04-29T09:56:20.842Z,10.27
2019-04-29T09:59:41.755Z,10.70
2019-04-29T10:02:59.021Z,11.43
2019-04-29T10:06:13.491Z,11.67
2019-04-29T10:09:22.625Z,11.07
2019-04-29T10:12:41.906Z,11.03
2019-04-29T10:16:07.039Z,12.20
2019-04-29T10:19:34.643Z,12.17
2019-04-29T10:22:43.378Z,14.90
2019-04-29T10:25:50.564Z,14.57
2019-04-29T10:29:05.975Z,13.93
2019-04-29T10:32:14.687Z,15.10
2019-04-29T10:35:23.333Z,14.03
2019-04-29T10:38:32.032Z,15.20
2019-04-29T10:41:43.558Z,15.00
2019-04-29T10:45:14.093Z,13.93
2019-04-29T10:48:50.121Z,15.13
2019-04-29T10:52:02.900Z,15.33
2019-04-29T10:55:10.301Z,15.93
2019-04-29T10:58:21.924Z,16.47
2019-04-29T11:02:35.842Z,16.40
2019-04-29T11:06:00.475Z,18.90
2019-04-29T11:09:18.569Z,18.00
2019-04-29T11:12:27.495Z,17.60
2019-04-29T11:15:37.473Z,18.27
2019-04-29T11:18:46.246Z,17.43
2019-04-29T11:21:55.480Z,18.10
2019-04-29T11:25:29.636Z,18.20
2019-04-29T11:28:39.843Z,18.03
2019-04-29T11:31:54.082Z,17.23
2019-04-29T11:35:08.776Z,19.93
2019-04-29T11:38:18.455Z,18.33
2019-04-29T11:41:38.082Z,17.67
2019-04-29T11:45:01.740Z,20.37
2019-04-29T11:48:18.055Z,26.77
2019-04-29T11:52:07.658Z,17.83
2019-04-29T11:54:55.356Z,17.43
2019-04-29T11:58:09.962Z,18.13
2019-04-29T12:01:51.187Z,19.60
2019-04-29T12:05:04.238Z,19.77
2019-04-29T12:08:17.138Z,18.67
2019-04-29T12:11:36.284Z,20.03
2019-04-29T12:14:59.950Z,19.23
2019-04-29T12:18:12.680Z,20.87
2019-04-29T12:21:25.839Z,19.47
2019-04-29T12:24:47.279Z,20.10
2019-04-29T12:28:01.542Z,18.77
2019-04-29T12:31:14.188Z,19.67
2019-04-29T12:34:40.651Z,18.13
2019-04-29T12:38:39.353Z,19.30
2019-04-29T12:42:08.086Z,18.67
2019-04-29T12:45:38.654Z,18.47
2019-04-29T12:48:48.289Z,18.33
2019-04-29T12:51:57.037Z,17.23
2019-04-29T12:55:19.788Z,16.60
2019-04-29T12:58:19.224Z,18.03
2019-04-29T13:01:51.353Z,19.90
2019-04-29T13:05:35.895Z,17.97
2019-04-29T13:08:57.059Z,18.17
2019-04-29T13:12:19.043Z,18.90
2019-04-29T13:15:36.363Z,17.77
2019-04-29T13:19:31.469Z,18.67
2019-04-29T13:22:40.169Z,17.40
2019-04-29T13:25:51.072Z,16.80
2019-04-29T13:29:25.999Z,18.13
2019-04-29T13:32:21.073Z,18.23
2019-04-29T13:35:29.669Z,22.50
2019-04-29T13:38:38.381Z,16.97
2019-04-29T13:41:57.023Z,18.00
2019-04-29T13:45:07.900Z,17.13
2019-04-29T13:48:53.904Z,15.67
2019-04-29T13:52:04.910Z,15.70
2019-04-29T13:55:47.126Z,21.53
2019-04-29T13:58:35.255Z,15.13
2019-04-29T14:02:06.813Z,17.63
2019-04-29T14:05:13.716Z,15.93
2019-04-29T14:08:24.087Z,15.37
2019-04-29T14:11:32.695Z,14.67
2019-04-29T14:14:41.505Z,11.63
2019-04-29T14:17:50.131Z,10.70
2019-04-29T14:20:58.992Z,11.77
2019-04-29T14:24:07.740Z,13.17
2019-04-29T14:27:24.747Z,14.30
2019-04-29T14:30:38.376Z,11.93
2019-04-29T14:34:06.091Z,12.13
2019-04-29T14:37:23.266Z,12.43
2019-04-29T14:40:25.014Z,10.63
2019-04-29T14:43:58.649Z,11.63
2019-04-29T14:47:29.261Z,11.67
2019-04-29T14:50:38.090Z,12.10
2019-04-29T14:53:56.109Z,11.47
2019-04-29T14:56:57.177Z,10.43
2019-04-29T15:00:09.921Z,13.13
2019-04-29T15:03:19.078Z,9.37
2019-04-29T15:06:28.992Z,9.87
2019-04-29T15:09:55.801Z,10.10
2019-04-29T15:13:21.405Z,10.67
2019-04-29T15:16:34.930Z,12.10
2019-04-29T15:19:49.399Z,10.80
2019-04-29T15:22:55.821Z,9.50
2019-04-29T15:26:04.412Z,10.20
2019-04-29T15:29:13.259Z,8.70
2019-04-29T15:32:23.808Z,9.87
2019-04-29T15:35:32.664Z,10.00
2019-04-29T15:38:41.382Z,10.07
2019-04-29T15:41:50.284Z,9.03
2019-04-29T15:44:59.202Z,10.07
2019-04-29T15:48:08.072Z,11.67
2019-04-29T15:51:18.757Z,10.00
2019-04-29T15:54:32.327Z,14.90
2019-04-29T15:57:41.469Z,12.17
2019-04-29T16:00:51.803Z,12.17
2019-04-29T16:04:02.481Z,10.80
2019-04-29T16:07:46.562Z,10.50
2019-04-29T16:11:14.061Z,10.23
2019-04-29T16:14:24.285Z,11.50
2019-04-29T16:17:37.833Z,8.87
2019-04-29T16:20:43.320Z,11.33
2019-04-29T16:23:57.443Z,9.93
2019-04-29T16:27:08.646Z,24.43
2019-04-29T16:30:18.606Z,7.93
2019-04-29T16:33:23.366Z,12.17
2019-04-29T16:36:32.019Z,7.03
2019-04-29T16:39:40.744Z,8.00
2019-04-29T16:43:07.395Z,8.73
2019-04-29T16:46:23.438Z,7.87
2019-04-29T16:49:32.556Z,7.63
2019-04-29T16:52:44.528Z,7.47
2019-04-29T16:55:53.277Z,7.03
2019-04-29T16:59:09.155Z,6.70
2019-04-29T17:02:22.668Z,7.10
2019-04-29T17:06:01.731Z,6.53
2019-04-29T17:09:45.511Z,9.07
2019-04-29T17:12:54.318Z,11.40
2019-04-29T17:16:04.651Z,7.13
2019-04-29T17:19:13.585Z,9.20
2019-04-29T17:22:25.897Z,8.23
2019-04-29T17:25:34.120Z,8.53
2019-04-29T17:28:49.207Z,5.50
2019-04-29T17:32:47.870Z,6.23
2019-04-29T17:35:55.801Z,7.23
2019-04-29T17:39:06.739Z,7.33
2019-04-29T17:42:15.322Z,5.80
2019-04-29T17:45:32.560Z,5.00
2019-04-29T17:48:48.663Z,3.37
2019-04-29T17:52:03.075Z,3.87
2019-04-29T17:55:37.192Z,5.10
2019-04-29T17:58:43.925Z,3.90
2019-04-29T18:02:39.582Z,7.53
2019-04-29T18:06:02.827Z,6.43
2019-04-29T18:09:30.607Z,6.03
2019-04-29T18:12:41.270Z,4.07
2019-04-29T18:16:00.538Z,6.60
2019-04-29T18:19:05.810Z,8.00
2019-04-29T18:22:39.936Z,5.50
2019-04-29T18:25:59.018Z,5.13
2019-04-29T18:29:08.098Z,5.60
2019-04-29T18:32:17.019Z,5.33
2019-04-29T18:35:25.695Z,5.37
2019-04-29T18:38:48.687Z,8.73
2019-04-29T18:41:58.621Z,3.40
2019-04-29T18:45:05.775Z,3.77
2019-04-29T18:48:26.898Z,5.10
2019-04-29T18:51:34.753Z,5.40
2019-04-29T18:54:44.994Z,6.30
2019-04-29T18:58:05.682Z,5.03
2019-04-29T19:01:14.233Z,3.80
2019-04-29T19:04:37.657Z,5.70
2019-04-29T19:07:55.175Z,4.10
2019-04-29T19:10:58.199Z,4.63
2019-04-29T19:14:06.825Z,4.47
2019-04-29T19:17:16.206Z,5.00
2019-04-29T19:20:25.083Z,4.00
2019-04-29T19:23:45.771Z,5.37
2019-04-29T19:27:02.262Z,6.57
2019-04-29T19:30:06.271Z,3.10
2019-04-29T19:33:15.179Z,4.30
2019-04-29T19:36:24.040Z,3.70
2019-04-29T19:39:31.641Z,5.67
2019-04-29T19:42:41.022Z,3.03
2019-04-29T19:45:50.505Z,4.80
2019-04-29T19:49:07.594Z,6.13
2019-04-29T19:52:09.509Z,5.33
2019-04-29T19:55:18.172Z,3.63
2019-04-29T19:58:31.234Z,4.17
2019-04-29T20:01:38.302Z,4.93
2019-04-29T20:05:00.024Z,3.50
2019-04-29T20:08:08.661Z,2.90
2019-04-29T20:11:18.861Z,3.50
2019-04-29T20:14:33.218Z,4.07
2019-04-29T20:17:56.897Z,3.67
2019-04-29T20:21:29.320Z,7.23
2019-04-29T20:24:38.466Z,4.30
2019-04-29T20:27:47.376Z,4.13
2019-04-29T20:31:14.834Z,2.80
2019-04-29T20:34:06.174Z,3.60
2019-04-29T20:37:26.127Z,3.53
2019-04-29T20:40:39.959Z,3.50
2019-04-29T20:43:46.268Z,3.50
2019-04-29T20:47:19.677Z,5.43
2019-04-29T20:50:16.431Z,5.40
2019-04-29T20:53:45.906Z,3.97
2019-04-29T20:57:17.453Z,3.13
2019-04-29T21:00:34.760Z,3.37
2019-04-29T21:04:50.844Z,6.75
2019-04-29T21:08:03.476Z,3.30
2019-04-29T21:11:22.195Z,5.17
2019-04-29T21:14:51.155Z,3.63
2019-04-29T21:18:02.042Z,3.97
2019-04-29T21:21:15.527Z,5.97
2019-04-29T21:24:31.168Z,4.90
2019-04-29T21:28:02.158Z,6.40
2019-04-29T21:31:15.636Z,5.10
2019-04-29T21:34:25.539Z,4.50
2019-04-29T21:38:22.262Z,4.60
2019-04-29T21:42:01.535Z,6.40
2019-04-29T21:45:17.448Z,4.23
2019-04-29T21:48:39.721Z,6.13
2019-04-29T21:51:49.822Z,4.13
2019-04-29T21:54:58.496Z,3.53
2019-04-29T21:58:21.292Z,5.00
2019-04-29T22:01:40.412Z,4.53
2019-04-29T22:04:48.967Z,7.73
2019-04-29T22:07:57.775Z,4.53
2019-04-29T22:11:07.058Z,5.67
2019-04-29T22:14:26.645Z,5.47
2019-04-29T22:17:36.007Z,6.07
2019-04-29T22:20:44.663Z,4.80
2019-04-29T22:23:55.128Z,5.97
2019-04-29T22:27:05.281Z,4.17
2019-04-29T22:30:18.188Z,6.30
2019-04-29T22:33:25.215Z,5.47
2019-04-29T22:36:36.019Z,5.13
2019-04-29T22:39:58.645Z,5.03
2019-04-29T22:43:33.592Z,5.10
2019-04-29T22:46:44.616Z,5.20
2019-04-29T22:49:52.642Z,5.00
2019-04-29T22:53:01.389Z,6.27
2019-04-29T22:56:13.951Z,6.03
2019-04-29T22:59:21.818Z,6.23
2019-04-29T23:02:30.357Z,3.93
2019-04-29T23:05:38.891Z,5.17
2019-04-29T23:08:57.909Z,6.90
2019-04-29T23:12:09.749Z,5.60
2019-04-29T23:15:22.751Z,4.67
2019-04-29T23:18:33.224Z,4.67
2019-04-29T23:21:57.290Z,8.07
2019-04-29T23:25:26.635Z,4.93
2019-04-29T23:28:35.594Z,5.17
2019-04-29T23:31:55.417Z,6.60
2019-04-29T23:35:06.270Z,5.27
2019-04-29T23:38:15.551Z,4.80
2019-04-29T23:41:27.619Z,6.10
2019-04-29T23:44:37.815Z,4.70
2019-04-29T23:47:46.894Z,6.23
2019-04-29T23:50:58.253Z,4.57
2019-04-29T23:54:07.843Z,5.33
2019-04-29T23:57:42.591Z,6.30
